Time;durP1;ratioP1;P1;durP2;ratioP2;P2;SDS_P1;SDS_P2;PMS_P1;PMS_P2;Temp;Humidity;BMP_temperature;BMP_pressure;BME280_temperature;BME280_humidity;BME280_pressure;Samples;Min_cycle;Max_cycle;Signal;HPM_P1;HPM_P2
2022/06/29 00:01:23;;;;;;;2.75;2.13;;;;;;;;;;4997259;28;20221;-86
2022/06/29 00:03:51;;;;;;;2.25;2.05;;;;;;;;;;4984183;28;20259;-88
2022/06/29 00:06:18;;;;;;;4.63;2.15;;;;;;;;;;4997929;28;20316;-88
2022/06/29 00:12:33;;;;;;;2.80;2.00;;;;;;;;;;5036154;28;20270;-88
2022/06/29 00:15:02;;;;;;;1.88;1.73;;;;;;;;;;5004547;28;20232;-87
2022/06/29 00:17:30;;;;;;;3.13;1.77;;;;;;;;;;5017135;28;20324;-88
2022/06/29 00:19:56;;;;;;;2.17;1.77;;;;;;;;;;5008720;28;20292;-87
2022/06/29 00:22:26;;;;;;;3.17;1.92;;;;;;;;;;5008052;28;20225;-86
2022/06/29 00:24:51;;;;;;;2.05;1.85;;;;;;;;;;5001577;28;20298;-87
2022/06/29 00:27:17;;;;;;;5.03;2.00;;;;;;;;;;5016070;28;20562;-88
2022/06/29 00:29:42;;;;;;;2.00;1.80;;;;;;;;;;4983888;28;20228;-88
2022/06/29 00:32:10;;;;;;;2.13;1.88;;;;;;;;;;4984012;28;20216;-88
2022/06/29 00:34:36;;;;;;;3.15;2.10;;;;;;;;;;4985476;28;20648;-88
2022/06/29 00:37:03;;;;;;;2.72;1.98;;;;;;;;;;4996902;28;20221;-88
2022/06/29 00:39:29;;;;;;;2.00;1.80;;;;;;;;;;4999412;28;20281;-88
2022/06/29 00:41:55;;;;;;;4.10;1.75;;;;;;;;;;5010791;28;20220;-87
2022/06/29 00:44:23;;;;;;;2.00;1.88;;;;;;;;;;5025815;28;20232;-88
2022/06/29 00:46:53;;;;;;;3.10;1.75;;;;;;;;;;5006206;28;20305;-87
2022/06/29 00:49:21;;;;;;;1.75;1.65;;;;;;;;;;4997895;28;20235;-88
2022/06/29 00:55:49;;;;;;;3.83;1.80;;;;;;;;;;5019905;28;20203;-88
2022/06/29 00:58:18;;;;;;;2.95;1.63;;;;;;;;;;5028606;28;20235;-87
2022/06/29 01:00:48;;;;;;;3.92;1.65;;;;;;;;;;5003536;28;20221;-87
2022/06/29 01:03:16;;;;;;;2.53;1.90;;;;;;;;;;5012484;28;20212;-88
2022/06/29 01:05:43;;;;;;;2.30;1.83;;;;;;;;;;5012104;28;20595;-88
2022/06/29 01:08:11;;;;;;;1.90;1.80;;;;;;;;;;4998161;28;20231;-88
2022/06/29 01:10:37;;;;;;;1.73;1.63;;;;;;;;;;4999517;28;20232;-87
2022/06/29 01:13:04;;;;;;;1.95;1.67;;;;;;;;;;5009895;28;20204;-87
2022/06/29 01:15:34;;;;;;;2.38;1.67;;;;;;;;;;4997432;28;20225;-88
2022/06/29 01:18:00;;;;;;;2.80;1.90;;;;;;;;;;4981649;28;20225;-87
2022/06/29 01:20:25;;;;;;;2.33;1.70;;;;;;;;;;4992821;28;20228;-88
2022/06/29 01:22:52;;;;;;;1.80;1.70;;;;;;;;;;5007044;28;20331;-88
2022/06/29 01:25:20;;;;;;;2.30;1.92;;;;;;;;;;4999832;28;20228;-88
2022/06/29 01:27:46;;;;;;;3.03;2.13;;;;;;;;;;4999505;28;20293;-89
2022/06/29 01:30:14;;;;;;;1.92;1.63;;;;;;;;;;5015512;28;20228;-88
2022/06/29 01:32:40;;;;;;;1.98;1.70;;;;;;;;;;5014571;28;20231;-87
2022/06/29 01:35:08;;;;;;;2.00;1.80;;;;;;;;;;5008697;28;20658;-87
2022/06/29 01:37:33;;;;;;;2.33;1.80;;;;;;;;;;4995692;28;20645;-87
2022/06/29 01:39:59;;;;;;;2.28;1.95;;;;;;;;;;4996212;28;20363;-86
2022/06/29 01:42:24;;;;;;;1.70;1.60;;;;;;;;;;5008275;28;20235;-86
2022/06/29 01:44:50;;;;;;;2.35;2.05;;;;;;;;;;4969500;28;20239;-88
2022/06/29 01:47:18;;;;;;;3.45;1.77;;;;;;;;;;5003379;28;20232;-88
2022/06/29 01:49:45;;;;;;;1.92;1.70;;;;;;;;;;4987489;28;20230;-88
2022/06/29 01:52:11;;;;;;;2.50;2.00;;;;;;;;;;5011293;28;20215;-88
2022/06/29 01:54:36;;;;;;;3.15;2.40;;;;;;;;;;5000120;28;20581;-87
2022/06/29 01:57:07;;;;;;;4.22;1.92;;;;;;;;;;4999315;28;20223;-88
2022/06/29 01:59:35;;;;;;;2.10;1.90;;;;;;;;;;5005357;28;20575;-88
2022/06/29 02:02:02;;;;;;;2.30;2.10;;;;;;;;;;4994769;28;20267;-87
2022/06/29 02:04:28;;;;;;;1.95;1.85;;;;;;;;;;4995450;28;20247;-86
2022/06/29 02:06:53;;;;;;;3.15;1.90;;;;;;;;;;5011726;28;20223;-87
2022/06/29 02:09:19;;;;;;;3.25;1.98;;;;;;;;;;5002638;28;20661;-87
2022/06/29 02:11:44;;;;;;;1.95;1.85;;;;;;;;;;4996481;28;20688;-86
2022/06/29 02:14:10;;;;;;;2.13;1.92;;;;;;;;;;4994689;28;20219;-86
2022/06/29 02:16:38;;;;;;;2.28;1.83;;;;;;;;;;5002778;28;20304;-87
2022/06/29 02:19:03;;;;;;;2.85;2.00;;;;;;;;;;4998286;28;20218;-87
2022/06/29 02:21:29;;;;;;;2.75;2.03;;;;;;;;;;5026227;28;20228;-87
2022/06/29 02:23:54;;;;;;;2.35;1.67;;;;;;;;;;4995307;28;20560;-86
2022/06/29 02:26:20;;;;;;;2.13;1.92;;;;;;;;;;4995135;28;20283;-85
2022/06/29 02:28:45;;;;;;;1.95;1.85;;;;;;;;;;5008843;28;20220;-87
2022/06/29 02:36:44;;;;;;;2.33;1.90;;;;;;;;;;5005831;28;20236;-86
2022/06/29 02:39:10;;;;;;;2.30;2.10;;;;;;;;;;4987143;28;20321;-87
2022/06/29 02:41:35;;;;;;;2.35;2.15;;;;;;;;;;4964048;28;20575;-87
2022/06/29 02:44:03;;;;;;;2.42;2.22;;;;;;;;;;4998789;28;20231;-87
2022/06/29 02:46:29;;;;;;;2.40;2.20;;;;;;;;;;5001332;28;20259;-87
2022/06/29 02:48:54;;;;;;;2.30;2.10;;;;;;;;;;5009993;28;20859;-87
2022/06/29 02:51:20;;;;;;;2.97;2.17;;;;;;;;;;5003849;28;20253;-87
2022/06/29 02:54:26;;;;;;;2.20;2.00;;;;;;;;;;5012018;28;20212;-88
2022/06/29 02:56:56;;;;;;;3.53;2.33;;;;;;;;;;5019126;28;20225;-86
2022/06/29 02:59:27;;;;;;;4.30;2.17;;;;;;;;;;4994624;28;20275;-88
2022/06/29 03:01:52;;;;;;;2.40;2.20;;;;;;;;;;5013915;28;20755;-87
2022/06/29 03:04:20;;;;;;;3.85;2.30;;;;;;;;;;5012534;28;20220;-88
2022/06/29 03:06:46;;;;;;;2.47;2.05;;;;;;;;;;4985276;28;20657;-86
2022/06/29 03:09:12;;;;;;;2.03;1.92;;;;;;;;;;4979124;28;20219;-87
2022/06/29 03:11:54;;;;;;;2.30;2.10;;;;;;;;;;5001007;28;20251;-87
2022/06/29 03:14:22;;;;;;;3.15;2.20;;;;;;;;;;4972712;28;20247;-88
2022/06/29 03:16:50;;;;;;;2.72;1.80;;;;;;;;;;4999794;28;20310;-87
2022/06/29 03:19:18;;;;;;;2.88;2.47;;;;;;;;;;4996808;28;20624;-88
2022/06/29 03:21:44;;;;;;;2.50;2.10;;;;;;;;;;5030484;28;20224;-87
2022/06/29 03:24:12;;;;;;;2.60;2.38;;;;;;;;;;5002400;28;20250;-86
2022/06/29 03:30:32;;;;;;;2.05;1.83;;;;;;;;;;4991147;22;20376;-78
2022/06/29 03:33:00;;;;;;;2.38;2.20;;;;;;;;;;4919367;28;20227;-78
2022/06/29 03:35:26;;;;;;;2.95;2.53;;;;;;;;;;4925632;28;20239;-77
2022/06/29 03:37:58;;;;;;;3.22;2.42;;;;;;;;;;4923951;29;20235;-78
2022/06/29 03:40:24;;;;;;;2.30;2.10;;;;;;;;;;4933692;29;20361;-78
2022/06/29 03:42:52;;;;;;;3.55;2.45;;;;;;;;;;4909296;28;20220;-77
2022/06/29 03:45:20;;;;;;;2.10;2.00;;;;;;;;;;4906995;28;20323;-77
2022/06/29 03:47:51;;;;;;;2.70;2.50;;;;;;;;;;4915876;29;20227;-77
2022/06/29 03:50:21;;;;;;;2.28;2.10;;;;;;;;;;4925716;28;20243;-78
2022/06/29 03:52:49;;;;;;;2.42;2.10;;;;;;;;;;4926211;29;20220;-77
2022/06/29 03:55:17;;;;;;;2.30;2.10;;;;;;;;;;4912147;28;20273;-78
2022/06/29 03:57:43;;;;;;;2.25;2.15;;;;;;;;;;4919859;28;20238;-77
2022/06/29 04:00:11;;;;;;;2.03;1.92;;;;;;;;;;4910915;28;20224;-77
2022/06/29 04:02:40;;;;;;;2.47;2.05;;;;;;;;;;4917553;28;20215;-79
2022/06/29 04:05:10;;;;;;;2.30;2.10;;;;;;;;;;4917894;28;20619;-77
2022/06/29 04:07:41;;;;;;;3.22;2.05;;;;;;;;;;4910138;29;20261;-79
2022/06/29 04:10:07;;;;;;;3.22;2.05;;;;;;;;;;4926855;28;20232;-78
2022/06/29 04:12:38;;;;;;;3.55;2.00;;;;;;;;;;4924089;28;20212;-79
2022/06/29 04:15:04;;;;;;;2.28;2.08;;;;;;;;;;4916553;28;20247;-77
2022/06/29 04:17:32;;;;;;;2.28;2.10;;;;;;;;;;4956948;28;20223;-78
2022/06/29 04:20:00;;;;;;;3.13;2.10;;;;;;;;;;4925857;29;20299;-79
2022/06/29 04:22:28;;;;;;;4.15;2.50;;;;;;;;;;4919034;29;20224;-77
2022/06/29 04:24:54;;;;;;;2.67;2.40;;;;;;;;;;4941917;29;20236;-77
2022/06/29 04:27:20;;;;;;;2.38;2.00;;;;;;;;;;4921393;28;20334;-80
2022/06/29 04:29:46;;;;;;;2.40;2.20;;;;;;;;;;4954178;28;20238;-78
2022/06/29 04:32:11;;;;;;;2.55;2.35;;;;;;;;;;4901125;28;20232;-79
2022/06/29 04:34:39;;;;;;;2.72;2.15;;;;;;;;;;4906883;28;20227;-80
2022/06/29 04:37:05;;;;;;;2.90;2.00;;;;;;;;;;4936168;28;20223;-81
2022/06/29 04:39:30;;;;;;;3.05;2.25;;;;;;;;;;4948118;28;20307;-80
2022/06/29 04:41:56;;;;;;;2.28;2.00;;;;;;;;;;4937330;29;20288;-80
2022/06/29 04:44:26;;;;;;;1.98;1.75;;;;;;;;;;4938328;28;20215;-79
2022/06/29 04:46:55;;;;;;;2.47;2.22;;;;;;;;;;4908018;28;20280;-80
2022/06/29 04:49:23;;;;;;;2.38;1.90;;;;;;;;;;4941555;28;20230;-78
2022/06/29 04:51:55;;;;;;;2.20;2.00;;;;;;;;;;4934249;28;20231;-78
2022/06/29 04:54:21;;;;;;;2.22;2.03;;;;;;;;;;4908953;28;20240;-76
2022/06/29 04:56:51;;;;;;;2.17;1.80;;;;;;;;;;4927407;28;20678;-78
2022/06/29 04:59:19;;;;;;;2.08;1.88;;;;;;;;;;4934229;28;20220;-75
2022/06/29 05:01:51;;;;;;;1.98;1.77;;;;;;;;;;4945069;28;20269;-76
2022/06/29 05:04:16;;;;;;;2.10;2.00;;;;;;;;;;4918366;28;20234;-77
2022/06/29 05:06:44;;;;;;;2.28;2.00;;;;;;;;;;4917360;29;20223;-77
2022/06/29 05:09:10;;;;;;;3.08;1.90;;;;;;;;;;4903517;28;20294;-79
2022/06/29 05:11:35;;;;;;;1.80;1.70;;;;;;;;;;4934328;29;20257;-80
2022/06/29 05:14:05;;;;;;;2.20;2.00;;;;;;;;;;4909186;28;20215;-77
2022/06/29 05:16:31;;;;;;;2.17;1.90;;;;;;;;;;5021646;28;20235;-77
2022/06/29 05:18:59;;;;;;;2.53;1.90;;;;;;;;;;5000165;28;20220;-76
2022/06/29 05:21:25;;;;;;;2.35;1.70;;;;;;;;;;4992438;28;20231;-77
2022/06/29 05:23:51;;;;;;;1.98;1.80;;;;;;;;;;5032778;28;20629;-78
2022/06/29 05:26:17;;;;;;;3.35;1.90;;;;;;;;;;5010395;28;20242;-78
2022/06/29 05:28:42;;;;;;;3.15;1.98;;;;;;;;;;5019602;28;20280;-77
2022/06/29 05:31:10;;;;;;;3.78;2.03;;;;;;;;;;4999657;28;20224;-78
2022/06/29 05:33:38;;;;;;;3.85;2.05;;;;;;;;;;5029910;28;20212;-76
2022/06/29 05:36:09;;;;;;;2.40;1.90;;;;;;;;;;5030189;28;20290;-79
2022/06/29 05:38:35;;;;;;;2.50;1.98;;;;;;;;;;5012895;28;20905;-78
2022/06/29 05:41:01;;;;;;;2.50;1.85;;;;;;;;;;5011544;28;20220;-78
2022/06/29 05:43:30;;;;;;;2.00;1.83;;;;;;;;;;5009130;28;20224;-78
2022/06/29 05:45:56;;;;;;;1.95;1.60;;;;;;;;;;5016091;28;20224;-77
2022/06/29 05:48:22;;;;;;;2.00;1.75;;;;;;;;;;5011980;28;20315;-76
2022/06/29 05:50:52;;;;;;;2.22;1.67;;;;;;;;;;5035369;28;20228;-77
2022/06/29 05:53:20;;;;;;;2.15;1.92;;;;;;;;;;5031360;28;20311;-79
2022/06/29 05:55:46;;;;;;;3.35;1.90;;;;;;;;;;5019937;28;20219;-77
2022/06/29 05:58:15;;;;;;;2.67;2.10;;;;;;;;;;5020130;28;20234;-77
2022/06/29 06:00:41;;;;;;;2.10;1.90;;;;;;;;;;5003362;28;20731;-77
2022/06/29 06:03:09;;;;;;;3.28;1.85;;;;;;;;;;5014112;28;20223;-76
2022/06/29 06:05:34;;;;;;;3.58;2.08;;;;;;;;;;5031797;28;20232;-75
2022/06/29 06:08:00;;;;;;;2.55;1.77;;;;;;;;;;5026092;28;20231;-75
2022/06/29 06:10:25;;;;;;;2.22;1.80;;;;;;;;;;5004037;28;20228;-76
2022/06/29 06:12:52;;;;;;;2.95;2.10;;;;;;;;;;5006352;28;20280;-75
2022/06/29 06:15:22;;;;;;;3.00;1.70;;;;;;;;;;5002949;28;20220;-76
2022/06/29 06:17:47;;;;;;;2.05;1.85;;;;;;;;;;5010914;28;20756;-75
2022/06/29 06:20:13;;;;;;;3.63;1.98;;;;;;;;;;5000613;28;20224;-76
2022/06/29 06:22:41;;;;;;;2.55;1.95;;;;;;;;;;5022463;28;20231;-76
2022/06/29 06:25:16;;;;;;;2.05;1.88;;;;;;;;;;5035374;28;20818;-78
2022/06/29 06:28:01;;;;;;;2.88;1.90;;;;;;;;;;5016649;28;20220;-75
2022/06/29 06:30:27;;;;;;;1.50;1.40;;;;;;;;;;5016367;28;20226;-76
2022/06/29 06:32:54;;;;;;;1.98;1.77;;;;;;;;;;5011165;28;20220;-76
2022/06/29 06:35:20;;;;;;;2.08;1.85;;;;;;;;;;4973954;28;20712;-76
2022/06/29 06:37:46;;;;;;;2.00;1.60;;;;;;;;;;5010672;28;20224;-75
2022/06/29 06:42:59;;;;;;;2.10;1.73;;;;;;;;;;5038726;28;20270;-76
2022/06/29 06:45:25;;;;;;;1.90;1.70;;;;;;;;;;5005741;28;20224;-76
2022/06/29 06:47:51;;;;;;;2.47;1.73;;;;;;;;;;4995417;28;21012;-75
2022/06/29 06:50:16;;;;;;;1.75;1.65;;;;;;;;;;5029353;28;20224;-77
2022/06/29 06:52:42;;;;;;;1.80;1.70;;;;;;;;;;5012155;28;20227;-75
2022/06/29 06:55:08;;;;;;;1.88;1.70;;;;;;;;;;5023936;28;20225;-76
2022/06/29 06:57:36;;;;;;;1.92;1.67;;;;;;;;;;5004605;28;20223;-77
2022/06/29 07:00:03;;;;;;;2.88;1.70;;;;;;;;;;5013271;28;20598;-77
2022/06/29 07:02:31;;;;;;;1.70;1.60;;;;;;;;;;5009717;28;20338;-76
2022/06/29 07:04:57;;;;;;;1.70;1.60;;;;;;;;;;5024714;28;20247;-78
2022/06/29 07:07:23;;;;;;;1.98;1.83;;;;;;;;;;5009626;28;20311;-77
2022/06/29 07:09:53;;;;;;;1.83;1.60;;;;;;;;;;5014469;28;20221;-78
2022/06/29 07:12:18;;;;;;;1.95;1.60;;;;;;;;;;5019102;28;20215;-78
2022/06/29 07:14:44;;;;;;;1.95;1.70;;;;;;;;;;5015269;28;20649;-77
2022/06/29 07:17:12;;;;;;;1.50;1.40;;;;;;;;;;5013875;28;20220;-77
2022/06/29 07:19:40;;;;;;;1.63;1.52;;;;;;;;;;5043425;28;20250;-78
2022/06/29 07:22:06;;;;;;;1.48;1.40;;;;;;;;;;5011651;28;20281;-76
2022/06/29 07:24:34;;;;;;;1.88;1.50;;;;;;;;;;4946385;28;20236;-77
2022/06/29 07:26:59;;;;;;;2.65;1.80;;;;;;;;;;4988464;28;20220;-77
2022/06/29 07:29:25;;;;;;;2.92;1.45;;;;;;;;;;5026859;28;20269;-75
2022/06/29 07:31:50;;;;;;;1.50;1.40;;;;;;;;;;4999081;28;20600;-72
2022/06/29 07:34:16;;;;;;;1.63;1.52;;;;;;;;;;5012884;28;20230;-74
2022/06/29 07:36:41;;;;;;;1.85;1.50;;;;;;;;;;5027557;28;20692;-74
2022/06/29 07:39:10;;;;;;;3.25;1.60;;;;;;;;;;5009639;28;20306;-76
2022/06/29 07:41:38;;;;;;;2.13;1.40;;;;;;;;;;5009203;28;20229;-74
2022/06/29 07:44:04;;;;;;;1.50;1.40;;;;;;;;;;5023283;28;20228;-74
2022/06/29 07:46:32;;;;;;;1.95;1.80;;;;;;;;;;5010753;28;20237;-73
2022/06/29 07:48:59;;;;;;;1.70;1.60;;;;;;;;;;5007945;28;20211;-74
2022/06/29 07:51:25;;;;;;;1.98;1.50;;;;;;;;;;5006224;28;20698;-73
2022/06/29 07:53:51;;;;;;;2.28;1.75;;;;;;;;;;4996107;28;20219;-72
2022/06/29 07:56:18;;;;;;;1.83;1.70;;;;;;;;;;5026076;28;20224;-73
2022/06/29 07:58:51;;;;;;;1.75;1.50;;;;;;;;;;4992747;28;20221;-75
2022/06/29 08:01:19;;;;;;;1.83;1.70;;;;;;;;;;4987196;28;20246;-72
2022/06/29 08:03:47;;;;;;;2.75;1.52;;;;;;;;;;5008655;28;20279;-73
2022/06/29 08:06:16;;;;;;;1.70;1.60;;;;;;;;;;5031460;28;20216;-73
2022/06/29 08:08:42;;;;;;;2.20;1.75;;;;;;;;;;5019660;28;20215;-74
2022/06/29 08:11:08;;;;;;;4.28;1.45;;;;;;;;;;4995572;28;20219;-72
2022/06/29 08:13:38;;;;;;;1.83;1.50;;;;;;;;;;5029150;28;20755;-72
2022/06/29 08:16:05;;;;;;;1.55;1.45;;;;;;;;;;4999630;28;20228;-72
2022/06/29 08:18:30;;;;;;;1.98;1.77;;;;;;;;;;5026972;28;20266;-74
2022/06/29 08:20:56;;;;;;;1.65;1.55;;;;;;;;;;5016154;28;20224;-74
2022/06/29 08:23:21;;;;;;;2.13;1.60;;;;;;;;;;5025608;28;20246;-72
2022/06/29 08:25:46;;;;;;;3.60;1.65;;;;;;;;;;5009064;28;20230;-73
2022/06/29 08:28:12;;;;;;;2.10;1.90;;;;;;;;;;5029137;28;20231;-74
2022/06/29 08:30:40;;;;;;;1.67;1.58;;;;;;;;;;5034115;28;20256;-73
2022/06/29 08:33:06;;;;;;;3.08;1.70;;;;;;;;;;4999993;28;20228;-73
2022/06/29 08:35:36;;;;;;;1.80;1.70;;;;;;;;;;4997377;28;20292;-78
2022/06/29 08:38:03;;;;;;;2.15;1.88;;;;;;;;;;5013778;28;20698;-77
2022/06/29 08:40:44;;;;;;;1.80;1.70;;;;;;;;;;5025403;28;20246;-79
2022/06/29 08:43:15;;;;;;;1.92;1.73;;;;;;;;;;5009554;28;20228;-78
2022/06/29 08:45:47;;;;;;;2.28;2.00;;;;;;;;;;4920812;28;20416;-76
2022/06/29 08:48:13;;;;;;;3.17;1.75;;;;;;;;;;4975266;28;20220;-78
2022/06/29 08:50:41;;;;;;;2.67;1.70;;;;;;;;;;5007031;28;20816;-77
2022/06/29 08:53:28;;;;;;;2.03;1.83;;;;;;;;;;5015006;28;20709;-78
2022/06/29 08:55:56;;;;;;;2.05;1.70;;;;;;;;;;5019341;28;20216;-78
2022/06/29 08:58:27;;;;;;;3.72;1.80;;;;;;;;;;4995606;28;20220;-76
2022/06/29 09:00:54;;;;;;;1.95;1.70;;;;;;;;;;5025488;28;20217;-77
2022/06/29 09:03:22;;;;;;;3.90;1.80;;;;;;;;;;5017800;28;20280;-77
2022/06/29 09:05:54;;;;;;;2.00;1.90;;;;;;;;;;5014780;28;20569;-76
2022/06/29 09:08:20;;;;;;;2.47;1.63;;;;;;;;;;5019528;28;20652;-76
2022/06/29 09:10:46;;;;;;;1.95;1.70;;;;;;;;;;5016847;28;20220;-78
2022/06/29 09:13:11;;;;;;;2.03;1.80;;;;;;;;;;5011894;28;20697;-80
2022/06/29 09:15:40;;;;;;;1.98;1.60;;;;;;;;;;4981923;28;20219;-76
2022/06/29 09:18:25;;;;;;;2.35;1.52;;;;;;;;;;5013099;28;20219;-77
2022/06/29 09:20:58;;;;;;;1.80;1.70;;;;;;;;;;5005925;28;20273;-76
2022/06/29 09:23:24;;;;;;;2.33;1.70;;;;;;;;;;4985243;28;20586;-77
2022/06/29 09:25:51;;;;;;;1.80;1.70;;;;;;;;;;5015344;28;20237;-77
2022/06/29 09:28:19;;;;;;;1.65;1.55;;;;;;;;;;5012630;28;20219;-76
2022/06/29 09:30:47;;;;;;;1.65;1.50;;;;;;;;;;5014174;28;20710;-78
2022/06/29 09:33:14;;;;;;;2.05;1.55;;;;;;;;;;4999855;28;20302;-77
2022/06/29 09:35:45;;;;;;;1.85;1.75;;;;;;;;;;5016987;28;20220;-75
2022/06/29 09:38:24;;;;;;;1.70;1.60;;;;;;;;;;5003498;28;20601;-77
2022/06/29 09:41:01;;;;;;;2.90;1.70;;;;;;;;;;5041945;28;20247;-76
2022/06/29 09:43:32;;;;;;;1.98;1.50;;;;;;;;;;4948326;28;20313;-78
2022/06/29 09:46:03;;;;;;;2.42;1.50;;;;;;;;;;5014319;28;20213;-77
2022/06/29 09:48:33;;;;;;;1.42;1.23;;;;;;;;;;5030815;28;20281;-77
2022/06/29 09:50:58;;;;;;;1.55;1.45;;;;;;;;;;5009168;28;20226;-78
2022/06/29 09:53:39;;;;;;;2.25;1.60;;;;;;;;;;5012864;28;20227;-78
2022/06/29 09:56:06;;;;;;;1.67;1.58;;;;;;;;;;5023011;28;20709;-77
2022/06/29 09:58:52;;;;;;;1.60;1.33;;;;;;;;;;5011145;28;20220;-77
2022/06/29 10:04:04;;;;;;;2.97;1.50;;;;;;;;;;4971633;28;20362;-77
2022/06/29 10:06:32;;;;;;;2.33;1.50;;;;;;;;;;5017690;28;20223;-77
2022/06/29 10:08:58;;;;;;;1.83;1.38;;;;;;;;;;5014656;28;20243;-76
2022/06/29 10:14:41;;;;;;;1.70;1.35;;;;;;;;;;5043174;28;20976;-76
2022/06/29 10:17:11;;;;;;;2.38;1.30;;;;;;;;;;4969250;28;20231;-76
2022/06/29 10:19:52;;;;;;;1.45;1.35;;;;;;;;;;5013994;28;20220;-79
2022/06/29 10:22:20;;;;;;;1.50;1.40;;;;;;;;;;5029475;28;20609;-77
2022/06/29 10:25:05;;;;;;;3.72;1.30;;;;;;;;;;5023333;28;20290;-78
2022/06/29 10:27:31;;;;;;;2.67;1.50;;;;;;;;;;4997671;28;20228;-76
2022/06/29 10:30:22;;;;;;;1.88;1.52;;;;;;;;;;5018263;28;20303;-78
2022/06/29 10:32:50;;;;;;;1.50;1.40;;;;;;;;;;5014773;28;20216;-77
2022/06/29 10:35:16;;;;;;;2.58;1.38;;;;;;;;;;4998192;28;20722;-77
2022/06/29 10:37:54;;;;;;;1.52;1.20;;;;;;;;;;4990913;28;20252;-76
2022/06/29 10:40:30;;;;;;;1.40;1.30;;;;;;;;;;4993834;28;20310;-77
2022/06/29 10:43:10;;;;;;;2.72;1.50;;;;;;;;;;4983478;28;20234;-77
2022/06/29 10:45:41;;;;;;;1.70;1.60;;;;;;;;;;4884693;28;20318;-76
2022/06/29 10:48:07;;;;;;;2.00;1.33;;;;;;;;;;4904511;28;20829;-76
2022/06/29 10:50:40;;;;;;;2.20;1.38;;;;;;;;;;5032796;28;20220;-75
2022/06/29 10:53:10;;;;;;;1.30;1.20;;;;;;;;;;4985554;28;20306;-76
2022/06/29 10:55:38;;;;;;;2.10;1.20;;;;;;;;;;5010897;28;20303;-75
2022/06/29 10:58:08;;;;;;;1.40;1.30;;;;;;;;;;5003288;28;20602;-76
2022/06/29 11:00:40;;;;;;;3.95;1.45;;;;;;;;;;5009533;28;20235;-75
2022/06/29 11:03:13;;;;;;;1.50;1.40;;;;;;;;;;5003801;28;20212;-76
2022/06/29 11:14:01;;;;;;;1.52;1.33;;;;;;;;;;5018573;28;20212;-76
2022/06/29 11:16:36;;;;;;;2.03;1.27;;;;;;;;;;4998632;28;20686;-76
2022/06/29 11:19:02;;;;;;;1.67;1.40;;;;;;;;;;4906475;28;20234;-76
2022/06/29 11:21:33;;;;;;;2.63;1.33;;;;;;;;;;5007889;28;20229;-76
2022/06/29 11:24:05;;;;;;;3.17;1.48;;;;;;;;;;4991882;28;21166;-78
2022/06/29 11:26:33;;;;;;;2.95;1.40;;;;;;;;;;4995483;28;20412;-76
2022/06/29 11:29:04;;;;;;;2.13;1.60;;;;;;;;;;5027301;28;20224;-76
2022/06/29 11:31:30;;;;;;;1.55;1.45;;;;;;;;;;5008638;28;20235;-76
2022/06/29 11:33:55;;;;;;;3.50;1.50;;;;;;;;;;5014281;28;20212;-75
2022/06/29 11:36:25;;;;;;;2.20;1.40;;;;;;;;;;5009167;28;20755;-74
2022/06/29 11:38:53;;;;;;;1.95;1.30;;;;;;;;;;4999356;28;20208;-77
2022/06/29 11:41:25;;;;;;;1.75;1.63;;;;;;;;;;4994782;28;20701;-77
2022/06/29 11:44:24;;;;;;;3.05;1.60;;;;;;;;;;5005548;28;20297;-75
2022/06/29 11:46:51;;;;;;;3.55;1.50;;;;;;;;;;5029524;28;20246;-76
2022/06/29 11:52:03;;;;;;;1.70;1.60;;;;;;;;;;5032497;28;20215;-76
2022/06/29 11:54:43;;;;;;;4.82;1.52;;;;;;;;;;5006065;28;20222;-76
2022/06/29 11:57:15;;;;;;;2.63;1.83;;;;;;;;;;5032355;28;20227;-76
2022/06/29 11:59:41;;;;;;;1.88;1.77;;;;;;;;;;5027043;28;20694;-78
2022/06/29 12:02:07;;;;;;;1.85;1.50;;;;;;;;;;5013737;28;20216;-78
2022/06/29 12:04:34;;;;;;;1.60;1.50;;;;;;;;;;4996976;28;20290;-77
2022/06/29 12:07:02;;;;;;;1.70;1.60;;;;;;;;;;4997169;28;20770;-77
2022/06/29 12:09:28;;;;;;;2.95;1.70;;;;;;;;;;5021369;28;20219;-76
2022/06/29 12:11:58;;;;;;;2.08;1.90;;;;;;;;;;5022713;28;20228;-78
2022/06/29 12:14:23;;;;;;;2.42;1.50;;;;;;;;;;5020514;28;20219;-75
2022/06/29 12:16:49;;;;;;;2.15;1.55;;;;;;;;;;5010490;28;20212;-79
2022/06/29 12:19:15;;;;;;;3.13;1.70;;;;;;;;;;5030061;28;20268;-78
2022/06/29 12:21:43;;;;;;;2.70;1.33;;;;;;;;;;5030504;28;20730;-78
2022/06/29 12:24:09;;;;;;;1.70;1.48;;;;;;;;;;5018189;28;20641;-77
2022/06/29 12:26:37;;;;;;;1.83;1.20;;;;;;;;;;4998962;28;20224;-81
2022/06/29 12:29:05;;;;;;;1.73;1.40;;;;;;;;;;5021036;28;20216;-78
2022/06/29 12:31:30;;;;;;;2.55;1.40;;;;;;;;;;5036207;28;20230;-78
2022/06/29 12:33:58;;;;;;;2.63;1.40;;;;;;;;;;5018239;28;20227;-76
2022/06/29 12:36:26;;;;;;;4.72;1.40;;;;;;;;;;5003226;28;20220;-77
2022/06/29 12:38:56;;;;;;;2.45;1.33;;;;;;;;;;5006429;28;20222;-75
2022/06/29 12:41:22;;;;;;;3.40;1.15;;;;;;;;;;5012665;28;20227;-75
2022/06/29 12:43:47;;;;;;;1.90;1.17;;;;;;;;;;4999000;28;20243;-75
2022/06/29 12:46:13;;;;;;;1.58;1.33;;;;;;;;;;4999490;28;20219;-77
2022/06/29 12:48:39;;;;;;;1.45;1.35;;;;;;;;;;5005570;28;20609;-76
2022/06/29 12:51:05;;;;;;;2.05;1.23;;;;;;;;;;5014042;28;20639;-75
2022/06/29 12:53:31;;;;;;;1.50;1.23;;;;;;;;;;5011152;28;20675;-75
2022/06/29 12:55:59;;;;;;;2.38;1.20;;;;;;;;;;5011742;28;20254;-74
2022/06/29 12:58:25;;;;;;;1.50;1.40;;;;;;;;;;4996201;28;20315;-76
2022/06/29 13:00:55;;;;;;;2.08;1.10;;;;;;;;;;5000167;28;20224;-74
2022/06/29 13:03:24;;;;;;;2.58;1.27;;;;;;;;;;4949660;28;20222;-78
2022/06/29 13:05:51;;;;;;;1.30;1.20;;;;;;;;;;5044874;28;20235;-76
2022/06/29 13:08:19;;;;;;;1.23;1.10;;;;;;;;;;5020775;28;20219;-74
2022/06/29 13:10:45;;;;;;;1.73;1.20;;;;;;;;;;4997787;28;20251;-80
2022/06/29 13:13:13;;;;;;;1.63;1.33;;;;;;;;;;5009813;28;20278;-74
2022/06/29 13:15:38;;;;;;;2.72;1.20;;;;;;;;;;4996746;28;20231;-75
2022/06/29 13:18:04;;;;;;;2.60;1.20;;;;;;;;;;4995807;28;20220;-75
2022/06/29 13:20:32;;;;;;;2.28;1.50;;;;;;;;;;5013302;28;20723;-74
2022/06/29 13:22:57;;;;;;;1.75;1.40;;;;;;;;;;5006852;28;20220;-77
2022/06/29 13:25:25;;;;;;;2.33;1.42;;;;;;;;;;5013880;28;20236;-77
2022/06/29 13:27:51;;;;;;;1.80;1.35;;;;;;;;;;4940905;28;20228;-78
2022/06/29 13:30:19;;;;;;;4.35;1.40;;;;;;;;;;4972332;28;20249;-77
2022/06/29 13:32:47;;;;;;;1.33;1.20;;;;;;;;;;5005461;28;20224;-75
2022/06/29 13:35:12;;;;;;;4.70;1.33;;;;;;;;;;5013134;28;20219;-74
2022/06/29 13:37:40;;;;;;;2.13;1.40;;;;;;;;;;5010913;28;20228;-78
2022/06/29 13:40:11;;;;;;;2.65;1.42;;;;;;;;;;5028995;28;21008;-78
2022/06/29 13:42:39;;;;;;;3.42;1.30;;;;;;;;;;4973182;28;20235;-77
2022/06/29 13:45:08;;;;;;;1.40;1.30;;;;;;;;;;4992680;28;20235;-77
2022/06/29 13:47:36;;;;;;;1.67;1.30;;;;;;;;;;4993755;28;20670;-77
2022/06/29 13:50:02;;;;;;;1.75;1.38;;;;;;;;;;4998319;28;20228;-76
2022/06/29 13:52:28;;;;;;;1.63;1.30;;;;;;;;;;5025873;28;20831;-76
2022/06/29 13:54:56;;;;;;;1.65;1.55;;;;;;;;;;5032459;28;20232;-76
2022/06/29 13:57:23;;;;;;;1.50;1.40;;;;;;;;;;5013008;28;20216;-74
2022/06/29 13:59:52;;;;;;;1.77;1.33;;;;;;;;;;5028075;28;20273;-74
2022/06/29 14:02:17;;;;;;;3.58;1.30;;;;;;;;;;5024714;28;20721;-74
2022/06/29 14:04:44;;;;;;;3.45;1.50;;;;;;;;;;5023942;28;20236;-74
2022/06/29 14:07:12;;;;;;;1.48;1.25;;;;;;;;;;5014637;28;20729;-73
2022/06/29 14:09:40;;;;;;;1.60;1.30;;;;;;;;;;5037770;28;20231;-76
2022/06/29 14:12:06;;;;;;;1.30;1.20;;;;;;;;;;5029889;28;20299;-76
2022/06/29 14:14:32;;;;;;;1.48;1.38;;;;;;;;;;5012514;28;20231;-74
2022/06/29 14:17:02;;;;;;;3.25;1.80;;;;;;;;;;4933769;28;20285;-74
2022/06/29 14:19:32;;;;;;;3.08;2.40;;;;;;;;;;5000688;28;20230;-74
2022/06/29 14:22:00;;;;;;;6.13;5.10;;;;;;;;;;5023336;28;20698;-75
2022/06/29 14:24:27;;;;;;;7.43;5.28;;;;;;;;;;5010835;28;20228;-75
2022/06/29 14:26:56;;;;;;;6.65;5.00;;;;;;;;;;4996168;28;20438;-76
2022/06/29 14:29:24;;;;;;;6.45;3.45;;;;;;;;;;4993367;28;20224;-76
2022/06/29 14:31:51;;;;;;;2.60;1.60;;;;;;;;;;5010112;28;20276;-76
2022/06/29 14:34:17;;;;;;;1.60;1.50;;;;;;;;;;4993220;28;20220;-75
2022/06/29 14:36:42;;;;;;;1.63;1.17;;;;;;;;;;5011783;28;20228;-75
2022/06/29 14:39:08;;;;;;;2.30;1.20;;;;;;;;;;5004897;28;20219;-75
2022/06/29 14:41:36;;;;;;;1.73;1.17;;;;;;;;;;5007466;28;20216;-79
2022/06/29 14:44:03;;;;;;;2.85;1.23;;;;;;;;;;4997110;28;20246;-79
2022/06/29 14:46:28;;;;;;;1.30;1.20;;;;;;;;;;4909724;28;20309;-76
2022/06/29 14:48:56;;;;;;;3.95;1.40;;;;;;;;;;4911900;29;20310;-74
2022/06/29 14:51:22;;;;;;;2.47;1.20;;;;;;;;;;4923393;28;20307;-76
2022/06/29 14:53:48;;;;;;;2.72;1.30;;;;;;;;;;4894348;29;20222;-75
2022/06/29 14:56:19;;;;;;;1.45;1.35;;;;;;;;;;4888552;28;20247;-78
2022/06/29 14:58:49;;;;;;;1.58;1.20;;;;;;;;;;5000420;28;20216;-80
2022/06/29 15:01:21;;;;;;;2.75;1.40;;;;;;;;;;4992697;28;20223;-78
2022/06/29 15:03:51;;;;;;;1.90;1.10;;;;;;;;;;5007376;28;20272;-78
2022/06/29 15:06:21;;;;;;;1.27;1.17;;;;;;;;;;5026999;28;20302;-78
2022/06/29 15:08:48;;;;;;;1.90;1.30;;;;;;;;;;4995574;28;20269;-77
2022/06/29 15:11:14;;;;;;;3.38;1.30;;;;;;;;;;5008347;28;20216;-76
2022/06/29 15:13:39;;;;;;;2.15;1.20;;;;;;;;;;5013520;28;20428;-79
2022/06/29 15:16:08;;;;;;;1.55;1.20;;;;;;;;;;5018054;28;20224;-78
2022/06/29 15:18:36;;;;;;;1.85;1.40;;;;;;;;;;5030442;28;20310;-76
2022/06/29 15:21:05;;;;;;;1.77;1.38;;;;;;;;;;5030510;28;20669;-77
2022/06/29 15:23:32;;;;;;;1.25;1.15;;;;;;;;;;4998125;28;20307;-78
2022/06/29 15:25:58;;;;;;;4.30;1.40;;;;;;;;;;5028334;28;20250;-74